sensor_id;sensor_type;location;lat;lon;timestamp;P1;durP1;ratioP1;P2;durP2;ratioP2
66727;SDS011;53641;44.274;19.890;2024-02-15T02:28:29;14.35;;;5.97;;
66727;SDS011;53641;44.274;19.890;2024-02-15T02:30:55;16.25;;;6.35;;
66727;SDS011;53641;44.274;19.890;2024-02-15T02:33:21;12.25;;;4.97;;
66727;SDS011;53641;44.274;19.890;2024-02-15T02:35:49;8.13;;;4.05;;
66727;SDS011;53641;44.274;19.890;2024-02-15T02:38:15;12.60;;;4.70;;
66727;SDS011;53641;44.274;19.890;2024-02-15T02:40:40;11.52;;;3.92;;
66727;SDS011;53641;44.274;19.890;2024-02-15T02:43:07;11.38;;;4.43;;
66727;SDS011;53641;44.274;19.890;2024-02-15T02:45:32;8.77;;;4.43;;
66727;SDS011;53641;44.274;19.890;2024-02-15T02:47:58;8.60;;;4.18;;
66727;SDS011;53641;44.274;19.890;2024-02-15T02:50:24;11.57;;;3.92;;
66727;SDS011;53641;44.274;19.890;2024-02-15T02:52:50;9.65;;;3.50;;
66727;SDS011;53641;44.274;19.890;2024-02-15T02:55:16;11.60;;;4.30;;
66727;SDS011;53641;44.274;19.890;2024-02-15T02:57:42;10.25;;;4.50;;
66727;SDS011;53641;44.274;19.890;2024-02-15T03:00:12;9.85;;;4.40;;
66727;SDS011;53641;44.274;19.890;2024-02-15T03:02:41;15.15;;;5.55;;
66727;SDS011;53641;44.274;19.890;2024-02-15T03:05:08;15.07;;;4.63;;
66727;SDS011;53641;44.274;19.890;2024-02-15T03:07:36;9.77;;;4.93;;
66727;SDS011;53641;44.274;19.890;2024-02-15T03:10:02;17.20;;;5.60;;
66727;SDS011;53641;44.274;19.890;2024-02-15T03:12:29;12.77;;;5.68;;
66727;SDS011;53641;44.274;19.890;2024-02-15T03:14:56;15.90;;;5.03;;
66727;SDS011;53641;44.274;19.890;2024-02-15T03:17:23;15.32;;;5.72;;
66727;SDS011;53641;44.274;19.890;2024-02-15T03:19:49;11.18;;;4.68;;
66727;SDS011;53641;44.274;19.890;2024-02-15T03:22:14;7.93;;;4.00;;
66727;SDS011;53641;44.274;19.890;2024-02-15T03:24:40;10.80;;;4.38;;
66727;SDS011;53641;44.274;19.890;2024-02-15T03:27:07;12.77;;;4.57;;
66727;SDS011;53641;44.274;19.890;2024-02-15T03:29:35;10.98;;;4.40;;
66727;SDS011;53641;44.274;19.890;2024-02-15T03:32:01;9.05;;;3.78;;
66727;SDS011;53641;44.274;19.890;2024-02-15T03:34:31;10.77;;;4.57;;
66727;SDS011;53641;44.274;19.890;2024-02-15T03:36:57;8.98;;;4.38;;
66727;SDS011;53641;44.274;19.890;2024-02-15T03:39:23;8.73;;;4.13;;
66727;SDS011;53641;44.274;19.890;2024-02-15T03:41:49;11.35;;;4.10;;
66727;SDS011;53641;44.274;19.890;2024-02-15T03:44:18;11.80;;;5.38;;
66727;SDS011;53641;44.274;19.890;2024-02-15T03:46:44;17.15;;;5.72;;
66727;SDS011;53641;44.274;19.890;2024-02-15T03:49:16;10.95;;;4.90;;
66727;SDS011;53641;44.274;19.890;2024-02-15T03:51:43;10.65;;;5.05;;
66727;SDS011;53641;44.274;19.890;2024-02-15T03:54:10;10.48;;;4.47;;
66727;SDS011;53641;44.274;19.890;2024-02-15T03:56:35;10.82;;;5.15;;
66727;SDS011;53641;44.274;19.890;2024-02-15T03:59:02;12.98;;;4.53;;
66727;SDS011;53641;44.274;19.890;2024-02-15T04:01:29;11.85;;;3.70;;
66727;SDS011;53641;44.274;19.890;2024-02-15T04:03:59;14.30;;;4.40;;
66727;SDS011;53641;44.274;19.890;2024-02-15T04:06:25;11.10;;;3.90;;
66727;SDS011;53641;44.274;19.890;2024-02-15T04:08:52;11.40;;;4.10;;
66727;SDS011;53641;44.274;19.890;2024-02-15T04:11:18;7.53;;;3.67;;
66727;SDS011;53641;44.274;19.890;2024-02-15T04:13:44;10.85;;;4.45;;
66727;SDS011;53641;44.274;19.890;2024-02-15T04:16:10;7.45;;;3.92;;
66727;SDS011;53641;44.274;19.890;2024-02-15T04:18:36;8.90;;;3.80;;
66727;SDS011;53641;44.274;19.890;2024-02-15T04:21:03;8.50;;;3.95;;
66727;SDS011;53641;44.274;19.890;2024-02-15T04:23:31;10.43;;;3.78;;
66727;SDS011;53641;44.274;19.890;2024-02-15T04:25:56;10.40;;;4.80;;
66727;SDS011;53641;44.274;19.890;2024-02-15T04:28:24;10.27;;;5.15;;
66727;SDS011;53641;44.274;19.890;2024-02-15T04:30:50;11.45;;;5.13;;
66727;SDS011;53641;44.274;19.890;2024-02-15T04:33:16;10.98;;;5.15;;
66727;SDS011;53641;44.274;19.890;2024-02-15T04:35:42;16.55;;;5.13;;
66727;SDS011;53641;44.274;19.890;2024-02-15T04:38:09;10.60;;;4.43;;
66727;SDS011;53641;44.274;19.890;2024-02-15T04:40:34;11.07;;;4.90;;
66727;SDS011;53641;44.274;19.890;2024-02-15T04:43:02;8.85;;;4.65;;
66727;SDS011;53641;44.274;19.890;2024-02-15T04:45:29;8.52;;;4.00;;
66727;SDS011;53641;44.274;19.890;2024-02-15T04:47:55;10.80;;;4.95;;
66727;SDS011;53641;44.274;19.890;2024-02-15T04:50:22;8.15;;;4.22;;
66727;SDS011;53641;44.274;19.890;2024-02-15T04:52:48;10.77;;;4.55;;
66727;SDS011;53641;44.274;19.890;2024-02-15T04:55:14;10.65;;;4.45;;
66727;SDS011;53641;44.274;19.890;2024-02-15T04:57:42;6.88;;;3.40;;
66727;SDS011;53641;44.274;19.890;2024-02-15T05:00:08;9.32;;;4.18;;
66727;SDS011;53641;44.274;19.890;2024-02-15T05:02:37;10.27;;;4.70;;
66727;SDS011;53641;44.274;19.890;2024-02-15T05:05:06;11.60;;;5.18;;
66727;SDS011;53641;44.274;19.890;2024-02-15T05:07:33;13.57;;;5.88;;
66727;SDS011;53641;44.274;19.890;2024-02-15T05:09:59;13.23;;;5.40;;
66727;SDS011;53641;44.274;19.890;2024-02-15T05:12:28;12.75;;;6.55;;
66727;SDS011;53641;44.274;19.890;2024-02-15T05:14:56;16.17;;;6.32;;
66727;SDS011;53641;44.274;19.890;2024-02-15T05:17:21;14.30;;;6.45;;
66727;SDS011;53641;44.274;19.890;2024-02-15T05:19:47;20.67;;;7.60;;
66727;SDS011;53641;44.274;19.890;2024-02-15T05:22:14;21.02;;;9.65;;
66727;SDS011;53641;44.274;19.890;2024-02-15T05:24:40;25.98;;;9.65;;
66727;SDS011;53641;44.274;19.890;2024-02-15T05:27:06;24.05;;;9.38;;
66727;SDS011;53641;44.274;19.890;2024-02-15T05:29:32;17.83;;;7.50;;
66727;SDS011;53641;44.274;19.890;2024-02-15T05:32:01;14.38;;;7.15;;
66727;SDS011;53641;44.274;19.890;2024-02-15T05:34:27;12.48;;;5.93;;
66727;SDS011;53641;44.274;19.890;2024-02-15T05:36:54;15.85;;;5.88;;
66727;SDS011;53641;44.274;19.890;2024-02-15T05:39:20;14.02;;;5.70;;
66727;SDS011;53641;44.274;19.890;2024-02-15T05:41:47;11.77;;;5.40;;
66727;SDS011;53641;44.274;19.890;2024-02-15T05:44:13;14.88;;;5.72;;
66727;SDS011;53641;44.274;19.890;2024-02-15T05:46:44;15.45;;;5.85;;
66727;SDS011;53641;44.274;19.890;2024-02-15T05:49:09;11.07;;;4.88;;
66727;SDS011;53641;44.274;19.890;2024-02-15T05:51:40;12.07;;;5.53;;
66727;SDS011;53641;44.274;19.890;2024-02-15T05:54:06;12.07;;;5.03;;
66727;SDS011;53641;44.274;19.890;2024-02-15T05:56:32;8.70;;;4.65;;
66727;SDS011;53641;44.274;19.890;2024-02-15T05:58:58;15.98;;;5.43;;
66727;SDS011;53641;44.274;19.890;2024-02-15T06:01:23;14.93;;;6.03;;
66727;SDS011;53641;44.274;19.890;2024-02-15T06:03:49;11.95;;;5.43;;
66727;SDS011;53641;44.274;19.890;2024-02-15T06:06:19;12.50;;;6.20;;
66727;SDS011;53641;44.274;19.890;2024-02-15T06:08:46;11.35;;;5.88;;
66727;SDS011;53641;44.274;19.890;2024-02-15T06:11:12;23.60;;;7.30;;
66727;SDS011;53641;44.274;19.890;2024-02-15T06:13:39;20.23;;;7.13;;
66727;SDS011;53641;44.274;19.890;2024-02-15T06:16:06;18.33;;;7.60;;
66727;SDS011;53641;44.274;19.890;2024-02-15T06:18:34;15.45;;;7.07;;
66727;SDS011;53641;44.274;19.890;2024-02-15T06:21:00;15.80;;;6.68;;
66727;SDS011;53641;44.274;19.890;2024-02-15T06:23:27;16.83;;;6.90;;
66727;SDS011;53641;44.274;19.890;2024-02-15T06:25:53;15.05;;;7.43;;
66727;SDS011;53641;44.274;19.890;2024-02-15T06:28:21;20.70;;;8.77;;
66727;SDS011;53641;44.274;19.890;2024-02-15T06:31:07;17.63;;;7.88;;
66727;SDS011;53641;44.274;19.890;2024-02-15T06:33:53;20.80;;;7.50;;
66727;SDS011;53641;44.274;19.890;2024-02-15T06:36:49;17.15;;;7.13;;
66727;SDS011;53641;44.274;19.890;2024-02-15T06:39:38;16.88;;;7.40;;
66727;SDS011;53641;44.274;19.890;2024-02-15T06:42:09;19.35;;;7.80;;
66727;SDS011;53641;44.274;19.890;2024-02-15T06:44:36;25.67;;;8.00;;
66727;SDS011;53641;44.274;19.890;2024-02-15T06:47:05;17.58;;;7.88;;
66727;SDS011;53641;44.274;19.890;2024-02-15T06:49:31;22.23;;;8.60;;
66727;SDS011;53641;44.274;19.890;2024-02-15T06:51:58;27.42;;;10.35;;
66727;SDS011;53641;44.274;19.890;2024-02-15T06:54:27;23.60;;;10.40;;
66727;SDS011;53641;44.274;19.890;2024-02-15T06:56:52;25.13;;;10.15;;
66727;SDS011;53641;44.274;19.890;2024-02-15T06:59:19;29.08;;;11.52;;
66727;SDS011;53641;44.274;19.890;2024-02-15T07:01:47;28.38;;;11.75;;
66727;SDS011;53641;44.274;19.890;2024-02-15T07:04:13;24.05;;;10.93;;
66727;SDS011;53641;44.274;19.890;2024-02-15T07:06:39;24.05;;;10.35;;
66727;SDS011;53641;44.274;19.890;2024-02-15T07:09:05;21.45;;;10.90;;
66727;SDS011;53641;44.274;19.890;2024-02-15T07:11:32;29.25;;;12.95;;
66727;SDS011;53641;44.274;19.890;2024-02-15T07:13:59;33.08;;;12.88;;
66727;SDS011;53641;44.274;19.890;2024-02-15T07:16:25;30.95;;;15.13;;
66727;SDS011;53641;44.274;19.890;2024-02-15T07:18:51;31.77;;;13.52;;
66727;SDS011;53641;44.274;19.890;2024-02-15T07:21:17;32.47;;;14.18;;
66727;SDS011;53641;44.274;19.890;2024-02-15T07:23:46;25.08;;;12.32;;
66727;SDS011;53641;44.274;19.890;2024-02-15T07:26:12;26.70;;;11.63;;
66727;SDS011;53641;44.274;19.890;2024-02-15T07:28:39;26.35;;;14.18;;
66727;SDS011;53641;44.274;19.890;2024-02-15T07:31:06;23.33;;;12.52;;
66727;SDS011;53641;44.274;19.890;2024-02-15T07:33:32;30.55;;;13.35;;
66727;SDS011;53641;44.274;19.890;2024-02-15T07:36:00;25.45;;;11.85;;
66727;SDS011;53641;44.274;19.890;2024-02-15T07:38:26;22.58;;;11.85;;
66727;SDS011;53641;44.274;19.890;2024-02-15T07:40:51;21.98;;;11.98;;
66727;SDS011;53641;44.274;19.890;2024-02-15T07:43:17;24.95;;;13.63;;
66727;SDS011;53641;44.274;19.890;2024-02-15T07:45:43;32.03;;;14.38;;
66727;SDS011;53641;44.274;19.890;2024-02-15T07:48:09;28.42;;;13.90;;
66727;SDS011;53641;44.274;19.890;2024-02-15T07:50:35;33.90;;;17.27;;
66727;SDS011;53641;44.274;19.890;2024-02-15T07:53:03;35.67;;;18.08;;
66727;SDS011;53641;44.274;19.890;2024-02-15T07:55:31;39.35;;;18.67;;
66727;SDS011;53641;44.274;19.890;2024-02-15T07:57:57;36.60;;;18.02;;
66727;SDS011;53641;44.274;19.890;2024-02-15T08:00:24;30.98;;;17.02;;
66727;SDS011;53641;44.274;19.890;2024-02-15T08:02:52;42.80;;;18.05;;
66727;SDS011;53641;44.274;19.890;2024-02-15T08:05:22;30.38;;;16.80;;
66727;SDS011;53641;44.274;19.890;2024-02-15T08:07:48;31.98;;;14.70;;
66727;SDS011;53641;44.274;19.890;2024-02-15T08:10:14;26.90;;;15.70;;
66727;SDS011;53641;44.274;19.890;2024-02-15T08:12:41;35.70;;;18.15;;
66727;SDS011;53641;44.274;19.890;2024-02-15T08:15:08;32.35;;;17.73;;
66727;SDS011;53641;44.274;19.890;2024-02-15T08:17:38;35.30;;;18.98;;
66727;SDS011;53641;44.274;19.890;2024-02-15T08:20:05;39.33;;;21.73;;
66727;SDS011;53641;44.274;19.890;2024-02-15T08:22:32;39.78;;;21.55;;
66727;SDS011;53641;44.274;19.890;2024-02-15T08:24:58;35.92;;;19.15;;
66727;SDS011;53641;44.274;19.890;2024-02-15T08:27:24;37.42;;;20.45;;
66727;SDS011;53641;44.274;19.890;2024-02-15T08:29:50;43.80;;;22.35;;
66727;SDS011;53641;44.274;19.890;2024-02-15T08:32:16;36.33;;;21.10;;
66727;SDS011;53641;44.274;19.890;2024-02-15T08:34:42;39.72;;;19.58;;
66727;SDS011;53641;44.274;19.890;2024-02-15T08:37:08;42.97;;;20.08;;
66727;SDS011;53641;44.274;19.890;2024-02-15T08:39:34;38.42;;;18.02;;
66727;SDS011;53641;44.274;19.890;2024-02-15T08:42:00;35.42;;;19.60;;
66727;SDS011;53641;44.274;19.890;2024-02-15T08:44:26;31.08;;;17.35;;
66727;SDS011;53641;44.274;19.890;2024-02-15T08:46:51;34.35;;;17.88;;
66727;SDS011;53641;44.274;19.890;2024-02-15T08:49:17;31.00;;;17.15;;
66727;SDS011;53641;44.274;19.890;2024-02-15T08:51:43;31.73;;;15.40;;
66727;SDS011;53641;44.274;19.890;2024-02-15T08:54:09;23.10;;;13.70;;
66727;SDS011;53641;44.274;19.890;2024-02-15T08:56:37;21.67;;;12.15;;
66727;SDS011;53641;44.274;19.890;2024-02-15T08:59:03;20.45;;;11.50;;
66727;SDS011;53641;44.274;19.890;2024-02-15T09:01:29;25.80;;;12.48;;
66727;SDS011;53641;44.274;19.890;2024-02-15T09:03:56;25.65;;;11.80;;
66727;SDS011;53641;44.274;19.890;2024-02-15T09:06:22;17.80;;;11.60;;
66727;SDS011;53641;44.274;19.890;2024-02-15T09:08:48;17.95;;;10.20;;
66727;SDS011;53641;44.274;19.890;2024-02-15T09:11:13;19.15;;;9.88;;
66727;SDS011;53641;44.274;19.890;2024-02-15T09:13:39;23.02;;;11.13;;
66727;SDS011;53641;44.274;19.890;2024-02-15T09:16:05;17.58;;;8.98;;
66727;SDS011;53641;44.274;19.890;2024-02-15T09:18:31;15.63;;;8.77;;
66727;SDS011;53641;44.274;19.890;2024-02-15T09:20:58;14.13;;;9.13;;
66727;SDS011;53641;44.274;19.890;2024-02-15T09:23:24;16.67;;;7.50;;
66727;SDS011;53641;44.274;19.890;2024-02-15T09:25:50;17.63;;;8.00;;
66727;SDS011;53641;44.274;19.890;2024-02-15T09:28:19;18.65;;;6.70;;
66727;SDS011;53641;44.274;19.890;2024-02-15T09:30:47;11.45;;;5.22;;
66727;SDS011;53641;44.274;19.890;2024-02-15T09:33:16;11.57;;;5.00;;
66727;SDS011;53641;44.274;19.890;2024-02-15T09:35:42;7.07;;;3.78;;
66727;SDS011;53641;44.274;19.890;2024-02-15T09:38:07;10.48;;;4.30;;
66727;SDS011;53641;44.274;19.890;2024-02-15T09:40:33;6.32;;;2.90;;
66727;SDS011;53641;44.274;19.890;2024-02-15T09:43:00;7.35;;;2.85;;
66727;SDS011;53641;44.274;19.890;2024-02-15T09:45:26;3.67;;;1.55;;
66727;SDS011;53641;44.274;19.890;2024-02-15T09:47:52;2.80;;;1.27;;
66727;SDS011;53641;44.274;19.890;2024-02-15T09:50:19;4.05;;;1.88;;
66727;SDS011;53641;44.274;19.890;2024-02-15T09:52:49;3.03;;;1.65;;
66727;SDS011;53641;44.274;19.890;2024-02-15T09:55:16;5.53;;;2.38;;
66727;SDS011;53641;44.274;19.890;2024-02-15T09:57:42;3.75;;;1.95;;
66727;SDS011;53641;44.274;19.890;2024-02-15T10:00:10;6.60;;;2.00;;
66727;SDS011;53641;44.274;19.890;2024-02-15T10:02:40;3.47;;;1.50;;
66727;SDS011;53641;44.274;19.890;2024-02-15T10:05:09;5.47;;;1.40;;
66727;SDS011;53641;44.274;19.890;2024-02-15T10:07:43;2.42;;;1.50;;
66727;SDS011;53641;44.274;19.890;2024-02-15T10:10:16;4.45;;;1.65;;
66727;SDS011;53641;44.274;19.890;2024-02-15T10:12:45;7.20;;;1.77;;
66727;SDS011;53641;44.274;19.890;2024-02-15T10:15:26;3.45;;;1.77;;
66727;SDS011;53641;44.274;19.890;2024-02-15T10:17:54;3.83;;;1.73;;
66727;SDS011;53641;44.274;19.890;2024-02-15T10:20:21;5.40;;;2.47;;
66727;SDS011;53641;44.274;19.890;2024-02-15T10:22:50;7.45;;;1.90;;
66727;SDS011;53641;44.274;19.890;2024-02-15T10:25:16;4.80;;;1.77;;
66727;SDS011;53641;44.274;19.890;2024-02-15T10:27:44;6.63;;;3.03;;
66727;SDS011;53641;44.274;19.890;2024-02-15T10:30:17;4.93;;;2.20;;
66727;SDS011;53641;44.274;19.890;2024-02-15T10:32:44;8.15;;;2.90;;
66727;SDS011;53641;44.274;19.890;2024-02-15T10:35:10;7.28;;;3.65;;
66727;SDS011;53641;44.274;19.890;2024-02-15T10:37:43;8.10;;;3.83;;
66727;SDS011;53641;44.274;19.890;2024-02-15T10:40:09;8.90;;;3.17;;
66727;SDS011;53641;44.274;19.890;2024-02-15T10:42:38;9.05;;;3.75;;
66727;SDS011;53641;44.274;19.890;2024-02-15T10:45:08;11.63;;;5.30;;
66727;SDS011;53641;44.274;19.890;2024-02-15T10:47:37;8.55;;;4.22;;
66727;SDS011;53641;44.274;19.890;2024-02-15T10:50:03;11.13;;;4.60;;
66727;SDS011;53641;44.274;19.890;2024-02-15T10:52:31;5.00;;;2.40;;
66727;SDS011;53641;44.274;19.890;2024-02-15T10:55:04;5.32;;;2.13;;
66727;SDS011;53641;44.274;19.890;2024-02-15T10:57:36;5.15;;;2.05;;
66727;SDS011;53641;44.274;19.890;2024-02-15T11:00:05;6.25;;;2.22;;
66727;SDS011;53641;44.274;19.890;2024-02-15T11:02:42;5.28;;;2.28;;
66727;SDS011;53641;44.274;19.890;2024-02-15T11:05:19;8.95;;;3.30;;
66727;SDS011;53641;44.274;19.890;2024-02-15T11:07:48;3.60;;;1.42;;
66727;SDS011;53641;44.274;19.890;2024-02-15T11:10:14;10.82;;;3.80;;
66727;SDS011;53641;44.274;19.890;2024-02-15T11:12:42;2.83;;;1.35;;
66727;SDS011;53641;44.274;19.890;2024-02-15T11:15:09;1.95;;;0.80;;
66727;SDS011;53641;44.274;19.890;2024-02-15T11:17:44;3.28;;;1.30;;
66727;SDS011;53641;44.274;19.890;2024-02-15T11:20:48;2.95;;;1.35;;
66727;SDS011;53641;44.274;19.890;2024-02-15T11:23:13;4.07;;;1.63;;
66727;SDS011;53641;44.274;19.890;2024-02-15T11:25:49;3.90;;;1.55;;
66727;SDS011;53641;44.274;19.890;2024-02-15T11:31:02;4.53;;;1.75;;
66727;SDS011;53641;44.274;19.890;2024-02-15T11:33:32;3.30;;;1.35;;
66727;SDS011;53641;44.274;19.890;2024-02-15T11:36:02;1.88;;;1.02;;
66727;SDS011;53641;44.274;19.890;2024-02-15T11:38:30;6.78;;;1.35;;
66727;SDS011;53641;44.274;19.890;2024-02-15T11:41:04;4.07;;;1.42;;
66727;SDS011;53641;44.274;19.890;2024-02-15T11:43:45;7.00;;;2.08;;
66727;SDS011;53641;44.274;19.890;2024-02-15T11:46:26;5.38;;;2.20;;
66727;SDS011;53641;44.274;19.890;2024-02-15T11:48:57;6.85;;;2.17;;
66727;SDS011;53641;44.274;19.890;2024-02-15T11:51:28;4.57;;;2.40;;
66727;SDS011;53641;44.274;19.890;2024-02-15T11:56:24;9.25;;;2.13;;
66727;SDS011;53641;44.274;19.890;2024-02-15T11:59:01;5.25;;;2.22;;
66727;SDS011;53641;44.274;19.890;2024-02-15T12:01:27;6.85;;;1.60;;
66727;SDS011;53641;44.274;19.890;2024-02-15T12:04:13;2.35;;;1.15;;
66727;SDS011;53641;44.274;19.890;2024-02-15T12:06:58;3.78;;;1.50;;
66727;SDS011;53641;44.274;19.890;2024-02-15T12:09:44;3.45;;;1.33;;
66727;SDS011;53641;44.274;19.890;2024-02-15T12:12:30;3.55;;;1.08;;
66727;SDS011;53641;44.274;19.890;2024-02-15T12:15:16;4.20;;;1.92;;
66727;SDS011;53641;44.274;19.890;2024-02-15T12:18:17;3.22;;;0.90;;
66727;SDS011;53641;44.274;19.890;2024-02-15T12:21:03;2.15;;;1.02;;
66727;SDS011;53641;44.274;19.890;2024-02-15T12:23:30;4.05;;;1.33;;
66727;SDS011;53641;44.274;19.890;2024-02-15T12:25:58;3.38;;;1.20;;
66727;SDS011;53641;44.274;19.890;2024-02-15T12:28:25;1.77;;;0.98;;
66727;SDS011;53641;44.274;19.890;2024-02-15T12:30:54;3.30;;;1.23;;
66727;SDS011;53641;44.274;19.890;2024-02-15T12:33:24;3.00;;;1.23;;
66727;SDS011;53641;44.274;19.890;2024-02-15T12:35:50;3.38;;;1.20;;
66727;SDS011;53641;44.274;19.890;2024-02-15T12:38:16;6.93;;;1.90;;
66727;SDS011;53641;44.274;19.890;2024-02-15T12:40:43;3.80;;;1.20;;
66727;SDS011;53641;44.274;19.890;2024-02-15T12:43:09;2.42;;;1.20;;
66727;SDS011;53641;44.274;19.890;2024-02-15T12:45:36;5.22;;;1.50;;
66727;SDS011;53641;44.274;19.890;2024-02-15T12:48:05;4.70;;;1.75;;
66727;SDS011;53641;44.274;19.890;2024-02-15T12:50:32;6.30;;;2.92;;
66727;SDS011;53641;44.274;19.890;2024-02-15T12:52:59;5.80;;;2.70;;
66727;SDS011;53641;44.274;19.890;2024-02-15T12:55:29;6.68;;;2.33;;
66727;SDS011;53641;44.274;19.890;2024-02-15T12:58:03;7.55;;;2.28;;
66727;SDS011;53641;44.274;19.890;2024-02-15T13:00:30;3.45;;;1.30;;
66727;SDS011;53641;44.274;19.890;2024-02-15T13:02:58;3.75;;;1.90;;
66727;SDS011;53641;44.274;19.890;2024-02-15T13:05:25;4.88;;;2.05;;
66727;SDS011;53641;44.274;19.890;2024-02-15T13:07:52;2.00;;;1.10;;
66727;SDS011;53641;44.274;19.890;2024-02-15T13:10:30;2.90;;;1.23;;
66727;SDS011;53641;44.274;19.890;2024-02-15T13:12:57;1.40;;;0.90;;
66727;SDS011;53641;44.274;19.890;2024-02-15T13:15:23;2.90;;;1.20;;
66727;SDS011;53641;44.274;19.890;2024-02-15T13:17:57;1.60;;;0.95;;
66727;SDS011;53641;44.274;19.890;2024-02-15T13:20:23;5.05;;;1.40;;
66727;SDS011;53641;44.274;19.890;2024-02-15T13:23:00;3.35;;;0.95;;
66727;SDS011;53641;44.274;19.890;2024-02-15T13:25:28;2.00;;;1.08;;
66727;SDS011;53641;44.274;19.890;2024-02-15T13:27:54;1.58;;;0.88;;
66727;SDS011;53641;44.274;19.890;2024-02-15T13:30:20;2.47;;;1.00;;
66727;SDS011;53641;44.274;19.890;2024-02-15T13:32:48;2.40;;;1.02;;
66727;SDS011;53641;44.274;19.890;2024-02-15T13:35:17;3.10;;;1.08;;
66727;SDS011;53641;44.274;19.890;2024-02-15T13:37:52;5.60;;;1.98;;
66727;SDS011;53641;44.274;19.890;2024-02-15T13:40:25;5.53;;;1.30;;
66727;SDS011;53641;44.274;19.890;2024-02-15T13:42:54;7.32;;;1.55;;
66727;SDS011;53641;44.274;19.890;2024-02-15T13:45:24;2.72;;;1.20;;
66727;SDS011;53641;44.274;19.890;2024-02-15T13:47:55;2.83;;;1.38;;
66727;SDS011;53641;44.274;19.890;2024-02-15T13:50:22;3.78;;;1.15;;
66727;SDS011;53641;44.274;19.890;2024-02-15T13:52:49;2.35;;;1.02;;
66727;SDS011;53641;44.274;19.890;2024-02-15T13:55:15;5.20;;;1.30;;
66727;SDS011;53641;44.274;19.890;2024-02-15T13:57:46;3.67;;;1.35;;
66727;SDS011;53641;44.274;19.890;2024-02-15T14:00:13;4.63;;;2.10;;
66727;SDS011;53641;44.274;19.890;2024-02-15T14:02:53;2.80;;;1.00;;
66727;SDS011;53641;44.274;19.890;2024-02-15T14:05:22;3.53;;;1.50;;
66727;SDS011;53641;44.274;19.890;2024-02-15T14:07:57;2.75;;;1.10;;
66727;SDS011;53641;44.274;19.890;2024-02-15T14:12:53;2.72;;;1.20;;
66727;SDS011;53641;44.274;19.890;2024-02-15T14:15:27;3.17;;;1.33;;
66727;SDS011;53641;44.274;19.890;2024-02-15T14:17:52;6.32;;;1.38;;
66727;SDS011;53641;44.274;19.890;2024-02-15T14:20:18;3.85;;;1.30;;
66727;SDS011;53641;44.274;19.890;2024-02-15T14:22:46;5.32;;;1.50;;
66727;SDS011;53641;44.274;19.890;2024-02-15T14:25:23;4.90;;;1.75;;
66727;SDS011;53641;44.274;19.890;2024-02-15T14:27:49;3.72;;;1.40;;
66727;SDS011;53641;44.274;19.890;2024-02-15T14:30:15;2.30;;;1.20;;
66727;SDS011;53641;44.274;19.890;2024-02-15T14:33:00;1.83;;;0.98;;
66727;SDS011;53641;44.274;19.890;2024-02-15T14:35:33;2.13;;;1.17;;
66727;SDS011;53641;44.274;19.890;2024-02-15T14:38:04;6.30;;;1.88;;
66727;SDS011;53641;44.274;19.890;2024-02-15T14:40:32;5.50;;;2.50;;
66727;SDS011;53641;44.274;19.890;2024-02-15T14:42:58;7.05;;;3.00;;
66727;SDS011;53641;44.274;19.890;2024-02-15T14:45:24;7.97;;;3.25;;
66727;SDS011;53641;44.274;19.890;2024-02-15T14:47:51;6.70;;;2.83;;
66727;SDS011;53641;44.274;19.890;2024-02-15T14:50:17;9.13;;;3.90;;
66727;SDS011;53641;44.274;19.890;2024-02-15T14:52:45;6.72;;;2.75;;
66727;SDS011;53641;44.274;19.890;2024-02-15T14:55:11;7.18;;;2.80;;
66727;SDS011;53641;44.274;19.890;2024-02-15T14:57:37;8.82;;;3.75;;
66727;SDS011;53641;44.274;19.890;2024-02-15T15:00:04;7.13;;;3.38;;
66727;SDS011;53641;44.274;19.890;2024-02-15T15:02:35;8.23;;;2.50;;
66727;SDS011;53641;44.274;19.890;2024-02-15T15:05:01;8.73;;;4.05;;
66727;SDS011;53641;44.274;19.890;2024-02-15T15:07:47;8.95;;;3.83;;
66727;SDS011;53641;44.274;19.890;2024-02-15T15:10:32;7.57;;;3.20;;
66727;SDS011;53641;44.274;19.890;2024-02-15T15:13:18;10.15;;;3.67;;
66727;SDS011;53641;44.274;19.890;2024-02-15T15:15:44;8.23;;;3.40;;
66727;SDS011;53641;44.274;19.890;2024-02-15T15:18:11;7.05;;;3.45;;
66727;SDS011;53641;44.274;19.890;2024-02-15T15:20:37;9.98;;;3.55;;
66727;SDS011;53641;44.274;19.890;2024-02-15T15:23:03;10.18;;;3.28;;
66727;SDS011;53641;44.274;19.890;2024-02-15T15:25:31;11.73;;;4.65;;
66727;SDS011;53641;44.274;19.890;2024-02-15T15:27:57;12.85;;;5.57;;
66727;SDS011;53641;44.274;19.890;2024-02-15T15:30:23;9.57;;;3.78;;
66727;SDS011;53641;44.274;19.890;2024-02-15T15:32:49;7.95;;;4.28;;
66727;SDS011;53641;44.274;19.890;2024-02-15T15:35:15;13.65;;;4.18;;
66727;SDS011;53641;44.274;19.890;2024-02-15T15:37:44;10.82;;;4.15;;
66727;SDS011;53641;44.274;19.890;2024-02-15T15:40:11;11.25;;;4.05;;
66727;SDS011;53641;44.274;19.890;2024-02-15T15:42:37;10.32;;;4.07;;
66727;SDS011;53641;44.274;19.890;2024-02-15T15:45:04;12.57;;;4.95;;
66727;SDS011;53641;44.274;19.890;2024-02-15T15:47:32;19.05;;;6.95;;
66727;SDS011;53641;44.274;19.890;2024-02-15T15:49:58;14.65;;;5.80;;
66727;SDS011;53641;44.274;19.890;2024-02-15T15:52:24;15.57;;;6.93;;
66727;SDS011;53641;44.274;19.890;2024-02-15T15:54:50;13.45;;;5.82;;
66727;SDS011;53641;44.274;19.890;2024-02-15T15:57:16;14.23;;;6.22;;
66727;SDS011;53641;44.274;19.890;2024-02-15T15:59:41;18.10;;;6.18;;
66727;SDS011;53641;44.274;19.890;2024-02-15T16:02:08;12.15;;;5.63;;
66727;SDS011;53641;44.274;19.890;2024-02-15T16:04:35;13.32;;;6.50;;
66727;SDS011;53641;44.274;19.890;2024-02-15T16:07:07;12.07;;;6.78;;
66727;SDS011;53641;44.274;19.890;2024-02-15T16:09:33;16.67;;;6.93;;
66727;SDS011;53641;44.274;19.890;2024-02-15T16:11:59;15.55;;;6.90;;
66727;SDS011;53641;44.274;19.890;2024-02-15T16:14:24;18.98;;;7.90;;
66727;SDS011;53641;44.274;19.890;2024-02-15T16:16:52;16.92;;;8.45;;
66727;SDS011;53641;44.274;19.890;2024-02-15T16:19:18;20.42;;;8.75;;
66727;SDS011;53641;44.274;19.890;2024-02-15T16:21:43;17.85;;;9.07;;
66727;SDS011;53641;44.274;19.890;2024-02-15T16:24:10;17.70;;;8.85;;
66727;SDS011;53641;44.274;19.890;2024-02-15T16:26:35;23.67;;;11.40;;
66727;SDS011;53641;44.274;19.890;2024-02-15T16:29:01;23.10;;;10.75;;
66727;SDS011;53641;44.274;19.890;2024-02-15T16:31:27;26.77;;;13.27;;
66727;SDS011;53641;44.274;19.890;2024-02-15T16:33:53;25.27;;;14.00;;
66727;SDS011;53641;44.274;19.890;2024-02-15T16:36:18;32.15;;;14.07;;
66727;SDS011;53641;44.274;19.890;2024-02-15T16:38:44;32.15;;;13.77;;
66727;SDS011;53641;44.274;19.890;2024-02-15T16:41:10;28.63;;;14.05;;
66727;SDS011;53641;44.274;19.890;2024-02-15T16:43:36;35.22;;;14.50;;
66727;SDS011;53641;44.274;19.890;2024-02-15T16:46:02;36.40;;;15.38;;
66727;SDS011;53641;44.274;19.890;2024-02-15T16:48:28;26.50;;;12.32;;
66727;SDS011;53641;44.274;19.890;2024-02-15T16:50:54;23.35;;;11.23;;
66727;SDS011;53641;44.274;19.890;2024-02-15T16:53:23;22.65;;;10.23;;
66727;SDS011;53641;44.274;19.890;2024-02-15T16:55:50;26.25;;;11.15;;
66727;SDS011;53641;44.274;19.890;2024-02-15T16:58:15;23.42;;;11.40;;
66727;SDS011;53641;44.274;19.890;2024-02-15T17:00:45;26.13;;;11.75;;
66727;SDS011;53641;44.274;19.890;2024-02-15T17:03:12;28.55;;;12.77;;
66727;SDS011;53641;44.274;19.890;2024-02-15T17:05:40;28.65;;;12.20;;